Time;durP1;ratioP1;P1;durP2;ratioP2;P2;SDS_P1;SDS_P2;PMS_P1;PMS_P2;Temp;Humidity;BMP_temperature;BMP_pressure;BME280_temperature;BME280_humidity;BME280_pressure;Samples;Min_cycle;Max_cycle;Signal;HPM_P1;HPM_P2
2023/01/25 00:01:54;;;;;;;35.20;25.30;;;3.90;99.90;;;;;;5047727;28;20192;-32
2023/01/25 00:04:24;;;;;;;35.87;26.87;;;3.80;99.90;;;;;;5057834;28;20304;-32
2023/01/25 00:06:54;;;;;;;34.23;25.37;;;3.90;99.90;;;;;;5062257;28;20196;-32
2023/01/25 00:09:25;;;;;;;32.10;25.23;;;3.80;99.90;;;;;;5047425;28;20227;-32
2023/01/25 00:11:56;;;;;;;34.83;25.87;;;3.80;99.90;;;;;;5053124;28;20228;-32
2023/01/25 00:14:24;;;;;;;37.20;27.40;;;3.80;99.90;;;;;;5053672;28;20223;-32
2023/01/25 00:16:53;;;;;;;37.90;25.87;;;3.80;99.90;;;;;;5053028;28;20270;-32
2023/01/25 00:19:23;;;;;;;33.13;25.90;;;3.80;99.90;;;;;;5046967;28;20192;-32
2023/01/25 00:21:50;;;;;;;34.93;25.03;;;3.80;99.90;;;;;;5049802;28;20216;-32
2023/01/25 00:24:21;;;;;;;35.07;25.50;;;3.70;99.90;;;;;;5069043;28;20214;-32
2023/01/25 00:26:51;;;;;;;34.83;26.43;;;3.70;99.90;;;;;;5062936;28;20196;-32
2023/01/25 00:29:20;;;;;;;36.00;27.30;;;3.70;99.90;;;;;;5058748;28;20235;-32
2023/01/25 00:31:57;;;;;;;36.93;25.77;;;3.80;99.90;;;;;;5054002;28;20769;-32
2023/01/25 00:34:25;;;;;;;35.50;25.80;;;3.80;99.90;;;;;;5053380;28;20207;-33
2023/01/25 00:36:56;;;;;;;33.53;24.57;;;3.80;99.90;;;;;;5065558;28;20203;-32
2023/01/25 00:39:26;;;;;;;34.57;25.60;;;3.80;99.90;;;;;;5062993;28;20302;-32
2023/01/25 00:41:54;;;;;;;33.20;25.03;;;3.80;99.90;;;;;;5065495;28;20282;-32
2023/01/25 00:44:21;;;;;;;39.47;26.50;;;3.70;99.90;;;;;;5062750;28;20219;-32
2023/01/25 00:46:51;;;;;;;36.37;26.70;;;3.70;99.90;;;;;;5064681;28;20215;-33
2023/01/25 00:49:24;;;;;;;36.57;26.53;;;3.70;99.90;;;;;;5063353;28;20613;-33
2023/01/25 00:51:54;;;;;;;40.27;29.60;;;3.70;99.90;;;;;;5065924;28;20244;-32
2023/01/25 00:54:22;;;;;;;34.83;26.73;;;3.70;99.90;;;;;;5062552;28;20674;-32
2023/01/25 00:56:53;;;;;;;36.43;25.60;;;3.70;99.90;;;;;;5051764;28;20216;-32
2023/01/25 00:59:22;;;;;;;37.80;27.57;;;3.70;99.90;;;;;;5061378;28;20278;-32
2023/01/25 01:01:53;;;;;;;36.37;25.73;;;3.70;99.90;;;;;;5061018;28;20302;-32
2023/01/25 01:04:23;;;;;;;33.47;24.37;;;3.70;99.90;;;;;;5055426;28;20736;-32
2023/01/25 01:06:56;;;;;;;31.30;24.70;;;3.70;99.90;;;;;;5056791;28;20534;-33
2023/01/25 01:09:23;;;;;;;36.90;26.73;;;3.70;99.90;;;;;;5061560;28;20269;-32
2023/01/25 01:11:54;;;;;;;35.87;27.20;;;3.70;99.90;;;;;;5056365;28;20299;-32
2023/01/25 01:14:22;;;;;;;36.13;26.83;;;3.70;99.90;;;;;;5059710;28;20215;-32
2023/01/25 01:16:49;;;;;;;38.10;26.73;;;3.70;99.90;;;;;;5063625;28;20211;-32
2023/01/25 01:19:17;;;;;;;33.67;25.87;;;3.70;99.90;;;;;;5058355;28;20770;-32
2023/01/25 01:21:45;;;;;;;36.57;27.13;;;3.70;99.90;;;;;;5059315;28;20253;-32
2023/01/25 01:24:14;;;;;;;36.03;26.63;;;3.70;99.90;;;;;;5060644;28;20223;-32
2023/01/25 01:26:42;;;;;;;33.43;25.77;;;3.60;99.90;;;;;;5049086;28;20227;-32
2023/01/25 01:29:11;;;;;;;37.10;28.00;;;3.70;99.90;;;;;;5056295;28;20253;-32
2023/01/25 01:31:41;;;;;;;37.50;28.00;;;3.60;99.90;;;;;;5060327;28;20350;-32
2023/01/25 01:34:14;;;;;;;35.87;26.00;;;3.70;99.90;;;;;;5054171;28;20284;-32
2023/01/25 01:36:46;;;;;;;36.37;26.80;;;3.70;99.90;;;;;;5059671;28;20215;-33
2023/01/25 01:39:13;;;;;;;36.67;27.37;;;3.70;99.90;;;;;;5050449;28;20203;-32
2023/01/25 01:41:45;;;;;;;35.13;26.27;;;3.60;99.90;;;;;;5056863;28;20207;-32
2023/01/25 01:44:18;;;;;;;33.50;25.83;;;3.70;99.90;;;;;;5055010;28;20256;-32
2023/01/25 01:46:56;;;;;;;39.27;27.40;;;3.60;99.90;;;;;;5056494;28;20227;-32
2023/01/25 01:49:30;;;;;;;36.13;26.67;;;3.60;99.90;;;;;;5053817;28;20219;-32
2023/01/25 01:51:59;;;;;;;36.20;27.17;;;3.60;99.90;;;;;;5053317;28;20737;-32
2023/01/25 01:55:00;;;;;;;40.37;28.20;;;3.60;99.90;;;;;;5059143;28;20204;-32
2023/01/25 01:57:54;;;;;;;39.90;28.90;;;3.60;99.90;;;;;;5048281;28;20228;-32
2023/01/25 02:00:30;;;;;;;36.20;28.60;;;3.60;99.90;;;;;;5049949;28;20207;-33
2023/01/25 02:03:00;;;;;;;37.63;29.27;;;3.50;99.90;;;;;;5058588;28;20651;-32
2023/01/25 02:05:47;;;;;;;38.37;26.83;;;3.50;99.90;;;;;;5060348;28;20219;-32
2023/01/25 02:08:18;;;;;;;35.17;26.67;;;3.60;99.90;;;;;;5059545;28;20208;-32
2023/01/25 02:10:48;;;;;;;34.67;26.77;;;3.50;99.90;;;;;;5057434;28;20643;-32
2023/01/25 02:13:17;;;;;;;36.70;27.23;;;3.60;99.90;;;;;;5047803;28;20630;-32
2023/01/25 02:15:48;;;;;;;43.90;29.97;;;3.50;99.90;;;;;;5057801;28;20709;-32
2023/01/25 02:18:18;;;;;;;37.10;27.17;;;3.50;99.90;;;;;;5056391;28;20280;-33
2023/01/25 02:20:53;;;;;;;36.03;27.27;;;3.50;99.90;;;;;;5058267;28;20211;-32
2023/01/25 02:23:37;;;;;;;35.43;25.43;;;3.50;99.90;;;;;;5057612;28;20272;-32
2023/01/25 02:26:05;;;;;;;32.67;25.73;;;3.50;99.90;;;;;;5064059;28;20218;-32
2023/01/25 02:28:42;;;;;;;34.80;26.93;;;3.50;99.90;;;;;;5068816;28;20695;-32
2023/01/25 02:31:13;;;;;;;38.60;28.80;;;3.50;99.90;;;;;;5065847;28;20666;-32
2023/01/25 02:33:42;;;;;;;39.80;28.37;;;3.50;99.90;;;;;;5064131;28;20644;-32
2023/01/25 02:36:23;;;;;;;41.40;30.93;;;3.50;99.90;;;;;;5069675;28;20472;-33
2023/01/25 02:38:53;;;;;;;38.23;28.80;;;3.50;99.90;;;;;;5068826;28;20728;-32
2023/01/25 02:41:26;;;;;;;40.37;29.40;;;3.50;99.90;;;;;;5066733;28;20204;-33
2023/01/25 02:43:58;;;;;;;37.27;27.33;;;3.50;99.90;;;;;;5065980;28;20732;-32
2023/01/25 02:46:30;;;;;;;39.67;29.10;;;3.50;99.90;;;;;;5065052;28;20725;-32
2023/01/25 02:49:01;;;;;;;39.57;29.30;;;3.50;99.90;;;;;;5066536;28;20270;-32
2023/01/25 02:51:32;;;;;;;39.53;29.33;;;3.50;99.90;;;;;;5064167;28;20196;-32
2023/01/25 02:54:01;;;;;;;41.20;29.20;;;3.50;99.90;;;;;;5063761;28;20285;-33
2023/01/25 02:56:29;;;;;;;39.20;29.90;;;3.50;99.90;;;;;;5064216;28;20211;-33
2023/01/25 02:59:04;;;;;;;37.63;28.23;;;3.50;99.90;;;;;;5060032;28;20199;-32
2023/01/25 03:01:40;;;;;;;36.90;27.57;;;3.50;99.90;;;;;;5064328;28;20244;-32
2023/01/25 03:04:13;;;;;;;37.37;28.50;;;3.50;99.90;;;;;;5052466;28;20255;-32
2023/01/25 03:06:40;;;;;;;36.90;29.40;;;3.50;99.90;;;;;;5064157;28;20215;-32
2023/01/25 03:09:11;;;;;;;37.67;27.83;;;3.50;99.90;;;;;;5053417;28;20199;-32
2023/01/25 03:11:43;;;;;;;40.73;29.33;;;3.40;99.90;;;;;;5060284;28;20211;-32
2023/01/25 03:14:12;;;;;;;38.20;28.57;;;3.40;99.90;;;;;;5059633;28;20262;-32
2023/01/25 03:16:39;;;;;;;39.80;29.10;;;3.40;99.90;;;;;;5062312;28;20219;-32
2023/01/25 03:19:10;;;;;;;41.90;30.13;;;3.40;99.90;;;;;;5061948;28;20334;-32
2023/01/25 03:21:40;;;;;;;43.70;31.47;;;3.40;99.90;;;;;;5064019;28;20619;-32
2023/01/25 03:24:10;;;;;;;40.30;30.20;;;3.40;99.90;;;;;;5062359;28;20820;-32
2023/01/25 03:29:28;;;;;;;42.37;31.27;;;3.40;99.90;;;;;;5054112;28;20236;-32
2023/01/25 03:31:55;;;;;;;41.70;31.00;;;3.50;99.90;;;;;;5052963;28;20199;-33
2023/01/25 03:34:22;;;;;;;45.40;31.90;;;3.50;99.90;;;;;;5044335;28;20199;-32
2023/01/25 03:36:49;;;;;;;39.60;29.60;;;3.50;99.90;;;;;;5059000;28;20265;-32
2023/01/25 03:39:16;;;;;;;42.67;30.93;;;3.50;99.90;;;;;;5052380;28;20736;-32
2023/01/25 03:41:44;;;;;;;43.33;31.70;;;3.40;99.90;;;;;;5054839;28;20207;-33
2023/01/25 03:44:11;;;;;;;42.93;31.07;;;3.50;99.90;;;;;;5057959;28;20203;-33
2023/01/25 03:46:40;;;;;;;47.83;33.80;;;3.50;99.90;;;;;;5046342;28;20236;-32
2023/01/25 03:49:10;;;;;;;43.17;31.27;;;3.50;99.90;;;;;;5058201;28;20258;-33
2023/01/25 03:51:40;;;;;;;45.20;32.03;;;3.50;99.90;;;;;;5064096;28;20239;-32
2023/01/25 03:54:09;;;;;;;45.17;31.70;;;3.50;99.90;;;;;;5058804;28;20299;-32
2023/01/25 03:56:37;;;;;;;44.20;32.63;;;3.40;99.90;;;;;;5061494;28;20195;-32
2023/01/25 03:59:07;;;;;;;44.63;32.80;;;3.50;99.90;;;;;;5059152;28;20257;-32
2023/01/25 04:01:36;;;;;;;44.33;32.50;;;3.50;99.90;;;;;;5059285;28;20220;-32
2023/01/25 04:04:03;;;;;;;49.37;34.87;;;3.50;99.90;;;;;;5049393;28;20295;-33
2023/01/25 04:06:30;;;;;;;46.20;33.63;;;3.50;99.90;;;;;;5049957;28;20215;-32
2023/01/25 04:08:58;;;;;;;47.70;34.53;;;3.50;99.90;;;;;;5048528;28;20257;-32
2023/01/25 04:11:25;;;;;;;45.37;32.90;;;3.50;99.90;;;;;;5051358;28;20243;-33
2023/01/25 04:13:54;;;;;;;46.43;33.73;;;3.50;99.90;;;;;;5045639;28;20615;-32
2023/01/25 04:16:23;;;;;;;42.10;31.63;;;3.50;99.90;;;;;;5043825;28;20204;-32
2023/01/25 04:18:51;;;;;;;46.93;33.77;;;3.50;99.90;;;;;;5058872;28;20451;-32
2023/01/25 04:21:18;;;;;;;45.57;31.60;;;3.50;99.90;;;;;;5051333;28;20669;-33
2023/01/25 04:23:47;;;;;;;43.87;31.93;;;3.50;99.90;;;;;;5056288;28;20199;-32
2023/01/25 04:26:17;;;;;;;45.07;33.33;;;3.40;99.90;;;;;;5057699;28;20626;-32
2023/01/25 04:28:47;;;;;;;44.73;30.73;;;3.40;99.90;;;;;;5063737;28;20670;-32
2023/01/25 04:31:16;;;;;;;41.47;31.03;;;3.40;99.90;;;;;;5063627;28;20248;-32
2023/01/25 04:33:46;;;;;;;44.93;32.80;;;3.40;99.90;;;;;;5064467;28;20206;-33
2023/01/25 04:36:18;;;;;;;49.37;34.37;;;3.40;99.90;;;;;;5060350;28;20226;-32
2023/01/25 04:38:50;;;;;;;47.60;33.83;;;3.40;99.90;;;;;;5063955;28;20190;-32
2023/01/25 04:41:20;;;;;;;46.33;34.03;;;3.50;99.90;;;;;;5076340;28;20207;-32
2023/01/25 04:43:52;;;;;;;52.30;36.03;;;3.50;99.90;;;;;;5058727;28;20409;-33
2023/01/25 04:46:19;;;;;;;47.87;33.10;;;3.50;99.90;;;;;;5064693;28;20617;-32
2023/01/25 04:48:46;;;;;;;48.33;34.57;;;3.50;99.90;;;;;;5068868;28;20755;-32
2023/01/25 04:51:16;;;;;;;51.43;35.77;;;3.50;99.90;;;;;;5063942;28;20200;-32
2023/01/25 04:53:43;;;;;;;49.67;35.23;;;3.50;99.90;;;;;;5064298;28;20307;-33
2023/01/25 04:56:10;;;;;;;49.10;34.20;;;3.40;99.90;;;;;;5062405;28;20246;-32
2023/01/25 04:58:42;;;;;;;48.53;34.07;;;3.40;99.90;;;;;;5063160;28;20677;-32
2023/01/25 05:01:12;;;;;;;46.43;34.40;;;3.40;99.90;;;;;;5057513;28;20324;-32
2023/01/25 05:03:39;;;;;;;49.03;35.10;;;3.40;99.90;;;;;;5056412;28;20758;-33
2023/01/25 05:06:09;;;;;;;48.07;33.50;;;3.40;99.90;;;;;;5057547;28;20215;-32
2023/01/25 05:08:36;;;;;;;47.50;33.93;;;3.40;99.90;;;;;;5055387;28;20204;-32
2023/01/25 05:11:03;;;;;;;45.33;34.03;;;3.40;99.90;;;;;;5056240;28;20200;-32
2023/01/25 05:13:31;;;;;;;47.97;33.27;;;3.40;99.90;;;;;;5061250;28;20195;-32
2023/01/25 05:16:00;;;;;;;46.37;33.00;;;3.40;99.90;;;;;;5055938;28;20204;-33
2023/01/25 05:18:27;;;;;;;50.77;34.13;;;3.40;99.90;;;;;;5062539;28;20247;-32
2023/01/25 05:21:56;;;;;;;50.33;35.43;;;3.40;99.90;;;;;;5059311;28;20226;-33
2023/01/25 05:23:57;;;;;;;51.47;34.00;;;3.40;99.90;;;;;;5056937;28;20261;-32
2023/01/25 05:29:13;;;;;;;42.43;31.20;;;3.40;99.90;;;;;;5062945;28;20257;-32
2023/01/25 05:31:40;;;;;;;45.07;32.97;;;3.30;99.90;;;;;;5068603;28;20661;-33
2023/01/25 05:34:08;;;;;;;45.30;32.90;;;3.30;99.90;;;;;;5066805;28;20289;-32
2023/01/25 05:36:37;;;;;;;48.27;33.70;;;3.30;99.90;;;;;;5066864;28;20262;-33
2023/01/25 05:39:07;;;;;;;45.43;32.03;;;3.30;99.90;;;;;;5055804;28;20670;-32
2023/01/25 05:41:37;;;;;;;41.70;30.63;;;3.30;99.90;;;;;;5064377;28;20203;-33
2023/01/25 05:44:04;;;;;;;43.40;32.23;;;3.30;99.90;;;;;;5059930;28;20331;-32
2023/01/25 05:46:36;;;;;;;44.23;31.97;;;3.20;99.90;;;;;;5067413;28;20231;-33
2023/01/25 05:49:08;;;;;;;45.07;32.20;;;3.20;99.90;;;;;;5067316;28;20581;-32
2023/01/25 05:51:37;;;;;;;43.90;31.50;;;3.20;99.90;;;;;;5068952;28;20242;-33
2023/01/25 05:54:05;;;;;;;46.17;31.93;;;3.20;99.90;;;;;;5064116;28;20659;-33
2023/01/25 05:56:35;;;;;;;47.37;33.23;;;3.20;99.90;;;;;;5064814;28;20364;-33
2023/01/25 05:59:04;;;;;;;45.80;32.07;;;3.20;99.90;;;;;;5063925;28;20299;-32
2023/01/25 06:01:32;;;;;;;46.40;32.80;;;3.20;99.90;;;;;;5063266;28;20604;-33
2023/01/25 06:04:04;;;;;;;46.50;32.63;;;3.20;99.90;;;;;;5063625;28;20222;-33
2023/01/25 06:06:34;;;;;;;47.30;33.43;;;3.20;99.90;;;;;;5059470;28;20215;-33
2023/01/25 06:09:01;;;;;;;47.90;33.43;;;3.20;99.90;;;;;;5058292;28;20678;-33
2023/01/25 06:11:28;;;;;;;44.63;31.90;;;3.20;99.90;;;;;;5060671;28;20671;-32
2023/01/25 06:13:56;;;;;;;50.03;32.97;;;3.20;99.90;;;;;;5061727;28;20222;-33
2023/01/25 06:16:28;;;;;;;44.70;31.20;;;3.20;99.90;;;;;;5054690;28;20207;-32
2023/01/25 06:18:55;;;;;;;45.67;32.87;;;3.20;99.90;;;;;;5050220;28;20211;-33
2023/01/25 06:21:22;;;;;;;46.43;33.43;;;3.20;99.90;;;;;;5050874;28;20219;-32
2023/01/25 06:23:54;;;;;;;49.63;33.60;;;3.20;99.90;;;;;;5055632;28;20607;-33
2023/01/25 06:26:23;;;;;;;44.37;32.67;;;3.20;99.90;;;;;;5069404;28;20706;-33
2023/01/25 06:28:55;;;;;;;45.70;32.87;;;3.20;99.90;;;;;;5069668;28;20199;-32
2023/01/25 06:31:27;;;;;;;39.27;28.40;;;3.20;99.90;;;;;;5068292;28;20246;-32
2023/01/25 06:33:54;;;;;;;43.87;31.50;;;3.10;99.90;;;;;;5061903;28;20218;-33
2023/01/25 06:36:22;;;;;;;43.83;30.67;;;3.10;99.90;;;;;;5063652;28;20199;-33
2023/01/25 06:38:51;;;;;;;38.33;29.57;;;3.10;99.90;;;;;;5065174;28;20582;-33
2023/01/25 06:41:23;;;;;;;38.47;28.43;;;3.10;99.90;;;;;;5065300;28;20203;-33
2023/01/25 06:43:54;;;;;;;39.83;30.53;;;3.10;99.90;;;;;;5044783;28;20303;-33
2023/01/25 06:46:26;;;;;;;41.57;29.13;;;3.10;99.90;;;;;;5068631;28;20722;-32
2023/01/25 06:48:58;;;;;;;39.73;28.83;;;3.10;99.90;;;;;;5059034;28;20211;-33
2023/01/25 06:51:27;;;;;;;40.57;29.57;;;3.00;99.90;;;;;;5060442;28;20204;-32
2023/01/25 06:54:00;;;;;;;42.00;30.17;;;3.00;99.90;;;;;;5054281;28;20232;-33
2023/01/25 06:56:27;;;;;;;43.50;30.53;;;3.00;99.90;;;;;;5058214;28;20215;-32
2023/01/25 06:58:55;;;;;;;46.27;32.17;;;3.00;99.90;;;;;;5058486;28;20298;-33
2023/01/25 07:01:26;;;;;;;48.20;31.97;;;3.10;99.90;;;;;;5062936;28;20265;-33
2023/01/25 07:03:58;;;;;;;39.80;28.80;;;3.10;99.90;;;;;;5064831;28;20214;-32
2023/01/25 07:06:32;;;;;;;41.67;30.13;;;3.10;99.90;;;;;;5063393;28;20231;-33
2023/01/25 07:09:10;;;;;;;38.97;29.43;;;3.10;99.90;;;;;;5066149;28;20241;-33
2023/01/25 07:11:39;;;;;;;36.73;29.43;;;3.10;99.90;;;;;;5065534;28;20207;-32
2023/01/25 07:14:11;;;;;;;41.90;30.67;;;3.10;99.90;;;;;;5062301;28;21004;-33
2023/01/25 07:16:41;;;;;;;42.50;32.23;;;3.10;99.90;;;;;;5061951;28;20209;-32
2023/01/25 07:19:13;;;;;;;44.03;30.60;;;3.10;99.90;;;;;;5066124;28;20299;-32
2023/01/25 07:21:40;;;;;;;41.13;30.10;;;3.10;99.90;;;;;;5065013;28;20524;-32
2023/01/25 07:24:14;;;;;;;40.90;29.67;;;3.10;99.90;;;;;;5066331;28;21089;-33
2023/01/25 07:26:42;;;;;;;41.53;29.73;;;3.10;99.90;;;;;;5064369;28;20309;-32
2023/01/25 07:29:14;;;;;;;43.13;31.63;;;3.10;99.90;;;;;;5066577;28;21294;-33
2023/01/25 07:31:42;;;;;;;46.33;32.43;;;3.10;99.90;;;;;;5064793;28;20631;-32
2023/01/25 07:34:13;;;;;;;47.00;30.33;;;3.10;99.90;;;;;;5054287;28;20710;-33
2023/01/25 07:36:43;;;;;;;45.00;30.73;;;3.10;99.90;;;;;;5064745;28;20217;-32
2023/01/25 07:39:10;;;;;;;44.03;31.20;;;3.10;99.90;;;;;;5061458;28;20596;-32
2023/01/25 07:41:40;;;;;;;43.47;32.30;;;3.10;99.90;;;;;;5062732;28;20231;-32
2023/01/25 07:44:12;;;;;;;44.07;31.37;;;3.10;99.90;;;;;;5077988;28;20219;-33
2023/01/25 07:46:46;;;;;;;43.40;30.93;;;3.20;99.90;;;;;;5056746;28;20712;-32
2023/01/25 07:49:16;;;;;;;46.97;31.87;;;3.20;99.90;;;;;;5064325;28;20579;-33
2023/01/25 07:51:45;;;;;;;42.90;30.77;;;3.20;99.90;;;;;;5064542;28;20243;-32
2023/01/25 07:54:13;;;;;;;46.47;31.90;;;3.20;99.90;;;;;;5065124;28;20594;-32
2023/01/25 07:56:40;;;;;;;45.83;31.67;;;3.20;99.90;;;;;;5064522;28;20561;-33
2023/01/25 07:59:10;;;;;;;43.63;31.13;;;3.30;99.90;;;;;;5065453;28;20214;-33
2023/01/25 08:01:39;;;;;;;41.33;29.77;;;3.30;99.90;;;;;;5064014;28;20998;-33
2023/01/25 08:04:07;;;;;;;48.03;32.03;;;3.40;99.90;;;;;;5061923;28;20542;-32
2023/01/25 08:06:39;;;;;;;50.30;33.40;;;3.40;99.90;;;;;;5062765;28;20208;-33
2023/01/25 08:09:16;;;;;;;44.40;31.93;;;3.40;99.90;;;;;;5062088;28;20741;-32
2023/01/25 08:11:43;;;;;;;49.00;33.80;;;3.40;99.90;;;;;;5064150;28;20203;-32
2023/01/25 08:14:13;;;;;;;48.90;34.40;;;3.40;99.90;;;;;;5064524;28;20312;-32
2023/01/25 08:16:40;;;;;;;47.87;33.67;;;3.40;99.90;;;;;;5063341;28;20215;-33
2023/01/25 08:19:10;;;;;;;48.67;34.20;;;3.30;99.90;;;;;;5060093;28;20328;-32
2023/01/25 08:21:37;;;;;;;51.33;34.20;;;3.30;99.90;;;;;;5061592;28;20207;-33
2023/01/25 08:24:08;;;;;;;52.73;36.07;;;3.20;99.90;;;;;;5064892;28;20681;-32
2023/01/25 08:26:36;;;;;;;52.40;35.20;;;3.20;99.90;;;;;;5063856;28;20215;-33
2023/01/25 08:29:05;;;;;;;49.27;34.53;;;3.20;99.90;;;;;;5064818;28;20207;-32
2023/01/25 08:31:33;;;;;;;49.23;34.37;;;3.10;99.90;;;;;;5064719;28;20678;-32
2023/01/25 08:34:01;;;;;;;47.93;33.40;;;3.10;99.90;;;;;;5063110;28;20203;-33
2023/01/25 08:36:29;;;;;;;51.20;35.80;;;3.10;99.90;;;;;;5062240;28;20196;-33
2023/01/25 08:39:01;;;;;;;51.73;33.73;;;3.10;99.90;;;;;;5062642;28;20198;-32
2023/01/25 08:41:31;;;;;;;50.13;34.63;;;3.10;99.90;;;;;;5057800;28;20219;-32
2023/01/25 08:44:02;;;;;;;52.30;36.07;;;3.10;99.90;;;;;;5052310;28;20200;-33
2023/01/25 08:46:33;;;;;;;54.53;36.20;;;3.00;99.90;;;;;;5049367;28;20203;-32
2023/01/25 08:49:03;;;;;;;58.40;38.80;;;3.00;99.90;;;;;;5059547;28;20289;-33
2023/01/25 08:51:31;;;;;;;55.63;35.73;;;3.00;99.90;;;;;;5059615;28;20405;-32
2023/01/25 08:54:04;;;;;;;53.87;36.27;;;3.00;99.90;;;;;;5058200;28;20230;-33
2023/01/25 08:56:32;;;;;;;54.73;35.93;;;3.00;99.90;;;;;;5056966;28;20269;-33
2023/01/25 08:59:04;;;;;;;56.97;37.63;;;2.90;99.90;;;;;;5056720;28;20841;-33
2023/01/25 09:01:32;;;;;;;53.10;35.80;;;2.90;99.90;;;;;;5054305;28;20203;-33
2023/01/25 09:03:59;;;;;;;47.80;35.37;;;2.90;99.90;;;;;;5060320;28;20541;-33
2023/01/25 09:06:27;;;;;;;52.50;38.50;;;2.90;99.90;;;;;;5057474;28;20255;-32
2023/01/25 09:08:58;;;;;;;52.47;37.47;;;2.90;99.90;;;;;;5062680;28;20258;-32
2023/01/25 09:11:27;;;;;;;52.50;37.30;;;2.90;99.90;;;;;;5062588;28;20207;-32
2023/01/25 09:13:59;;;;;;;51.20;35.43;;;2.90;99.90;;;;;;5063834;28;20207;-33
2023/01/25 09:16:29;;;;;;;51.80;37.10;;;2.90;99.90;;;;;;5062335;28;20218;-33
2023/01/25 09:18:59;;;;;;;52.60;35.73;;;2.90;99.90;;;;;;5065641;28;20213;-33
2023/01/25 09:21:27;;;;;;;53.27;35.20;;;2.90;99.90;;;;;;5060866;28;20671;-32
2023/01/25 09:23:57;;;;;;;53.33;37.30;;;3.00;99.90;;;;;;5056833;28;20226;-33
2023/01/25 09:26:40;;;;;;;52.67;35.80;;;2.90;99.90;;;;;;5061490;28;20210;-33
2023/01/25 09:29:10;;;;;;;51.03;35.00;;;3.00;99.90;;;;;;5062134;28;20210;-33
2023/01/25 09:31:39;;;;;;;54.23;36.40;;;3.10;99.90;;;;;;5063431;28;20697;-33
2023/01/25 09:34:12;;;;;;;55.70;36.13;;;3.10;99.90;;;;;;5062694;28;20203;-32
2023/01/25 09:36:42;;;;;;;55.80;35.50;;;3.20;99.90;;;;;;5054656;28;20208;-32
2023/01/25 09:39:13;;;;;;;56.47;37.13;;;3.20;99.90;;;;;;5051236;28;20223;-33
2023/01/25 09:42:00;;;;;;;53.37;35.83;;;3.20;99.90;;;;;;5059386;28;20686;-32
2023/01/25 09:44:59;;;;;;;55.37;36.30;;;3.20;99.90;;;;;;5059194;28;20239;-32
2023/01/25 09:48:00;;;;;;;56.40;38.37;;;3.20;99.90;;;;;;5058317;28;20230;-33
2023/01/25 09:50:47;;;;;;;54.63;36.07;;;3.10;99.90;;;;;;5070500;28;20256;-32
2023/01/25 09:53:17;;;;;;;51.20;37.03;;;3.10;99.90;;;;;;5062823;28;20650;-32
2023/01/25 09:55:54;;;;;;;52.50;36.77;;;3.10;99.90;;;;;;5063723;28;20204;-32
2023/01/25 09:58:29;;;;;;;49.40;33.73;;;3.00;99.90;;;;;;5058722;28;20212;-33
2023/01/25 10:01:20;;;;;;;52.20;35.70;;;3.10;99.90;;;;;;5061240;28;20215;-33
2023/01/25 10:04:26;;;;;;;60.23;37.87;;;3.10;99.90;;;;;;5060877;28;20211;-33
2023/01/25 10:07:00;;;;;;;56.33;36.33;;;3.20;99.90;;;;;;5051388;28;20204;-32
2023/01/25 10:09:51;;;;;;;51.87;35.50;;;3.20;99.90;;;;;;5053215;28;20211;-33
2023/01/25 10:12:22;;;;;;;50.07;35.03;;;3.30;99.90;;;;;;5061985;28;20200;-33
2023/01/25 10:14:55;;;;;;;51.93;34.73;;;3.30;99.90;;;;;;5066973;28;20223;-32
2023/01/25 10:17:33;;;;;;;52.00;35.27;;;3.20;99.90;;;;;;5067035;28;20329;-33
2023/01/25 10:20:20;;;;;;;49.17;34.27;;;3.20;99.90;;;;;;5066969;28;20227;-33
2023/01/25 10:23:00;;;;;;;51.47;34.53;;;3.20;99.90;;;;;;5066717;28;20615;-33
2023/01/25 10:25:59;;;;;;;50.23;35.20;;;3.10;99.90;;;;;;5066640;28;20281;-33
2023/01/25 10:28:39;;;;;;;50.83;36.03;;;3.10;99.90;;;;;;5064726;28;20226;-33
2023/01/25 10:31:27;;;;;;;52.77;36.43;;;3.10;99.90;;;;;;5063420;28;20690;-33
2023/01/25 10:33:58;;;;;;;49.87;34.83;;;3.00;99.90;;;;;;5064820;28;20210;-33
2023/01/25 10:36:29;;;;;;;48.63;35.10;;;3.00;99.90;;;;;;5065780;28;20241;-33
2023/01/25 10:38:59;;;;;;;52.90;37.57;;;3.00;99.90;;;;;;5067269;28;20281;-32
2023/01/25 10:41:47;;;;;;;53.27;36.63;;;3.00;99.90;;;;;;5066040;28;20203;-33
2023/01/25 10:44:23;;;;;;;51.67;35.30;;;3.00;99.90;;;;;;5064592;28;20208;-33
2023/01/25 10:47:16;;;;;;;48.50;33.80;;;3.10;99.90;;;;;;5066344;28;20411;-32
2023/01/25 10:49:55;;;;;;;53.00;36.53;;;3.00;99.90;;;;;;5066107;28;20211;-33
2023/01/25 10:52:26;;;;;;;49.13;33.27;;;3.00;99.90;;;;;;5064738;28;20258;-33
2023/01/25 10:55:19;;;;;;;48.17;33.90;;;3.00;99.90;;;;;;5066909;28;20643;-33
2023/01/25 10:57:50;;;;;;;50.40;34.63;;;3.00;99.90;;;;;;5063940;28;20204;-32
2023/01/25 11:00:38;;;;;;;49.93;33.83;;;3.00;99.90;;;;;;5059196;28;20208;-33
2023/01/25 11:03:34;;;;;;;49.37;35.00;;;3.10;99.90;;;;;;5062871;28;20726;-33
2023/01/25 11:06:01;;;;;;;53.37;37.40;;;3.10;99.90;;;;;;5066732;28;20203;-32
2023/01/25 11:08:28;;;;;;;50.97;34.77;;;3.20;99.90;;;;;;5062308;28;20277;-33
2023/01/25 11:10:57;;;;;;;51.80;34.20;;;3.20;99.90;;;;;;5052542;28;20258;-33
2023/01/25 11:13:34;;;;;;;46.80;33.40;;;3.20;99.90;;;;;;5058847;28;20218;-33
2023/01/25 11:16:03;;;;;;;50.87;33.53;;;3.20;99.90;;;;;;5064651;28;20218;-32
2023/01/25 11:18:33;;;;;;;51.10;34.53;;;3.30;99.90;;;;;;5058569;28;20207;-33
2023/01/25 11:21:05;;;;;;;50.77;34.40;;;3.20;99.90;;;;;;5059603;28;20231;-32
2023/01/25 11:23:33;;;;;;;48.63;34.47;;;3.20;99.90;;;;;;5061707;28;20211;-32
2023/01/25 11:26:18;;;;;;;50.63;34.53;;;3.20;99.90;;;;;;5059483;28;20200;-33
2023/01/25 11:28:48;;;;;;;49.40;36.13;;;3.20;99.90;;;;;;5060945;28;20391;-33
2023/01/25 11:31:22;;;;;;;52.60;34.83;;;3.20;99.90;;;;;;5064627;28;20633;-32
2023/01/25 11:33:49;;;;;;;49.70;34.20;;;3.20;99.90;;;;;;5061333;28;20200;-33
2023/01/25 11:36:29;;;;;;;53.40;34.83;;;3.20;99.90;;;;;;5063123;28;20435;-32
2023/01/25 11:39:20;;;;;;;50.10;32.67;;;3.20;99.90;;;;;;5064514;28;20323;-33
2023/01/25 11:42:27;;;;;;;51.17;35.67;;;3.30;99.90;;;;;;5052371;28;21195;-33
2023/01/25 11:45:00;;;;;;;48.67;34.07;;;3.30;99.90;;;;;;5054144;28;20273;-33
2023/01/25 11:47:45;;;;;;;52.83;34.20;;;3.30;99.90;;;;;;5055967;28;20248;-33
2023/01/25 11:50:35;;;;;;;49.47;35.00;;;3.30;99.90;;;;;;5065338;28;20314;-33
2023/01/25 11:53:27;;;;;;;53.40;35.37;;;3.30;99.90;;;;;;5065411;28;20313;-32
2023/01/25 11:56:09;;;;;;;57.97;36.80;;;3.30;99.90;;;;;;5065796;28;20273;-33
2023/01/25 11:59:12;;;;;;;54.53;34.80;;;3.20;99.90;;;;;;5064988;28;20200;-33
2023/01/25 12:02:20;;;;;;;51.60;34.33;;;3.20;99.90;;;;;;5054423;28;20219;-33
2023/01/25 12:05:16;;;;;;;54.33;35.87;;;3.10;99.90;;;;;;5053239;28;20809;-33
2023/01/25 12:08:09;;;;;;;54.57;36.20;;;3.20;99.90;;;;;;5058982;28;20212;-33
2023/01/25 12:10:46;;;;;;;53.37;35.33;;;3.20;99.90;;;;;;5058240;28;20208;-32
2023/01/25 12:13:33;;;;;;;52.93;35.93;;;3.30;99.90;;;;;;5062832;28;20666;-33
2023/01/25 12:16:00;;;;;;;55.37;38.40;;;3.30;99.90;;;;;;5064075;28;20674;-32
2023/01/25 12:18:54;;;;;;;55.60;36.53;;;3.40;99.90;;;;;;5061891;28;20671;-33
2023/01/25 12:21:50;;;;;;;56.87;37.63;;;3.40;99.90;;;;;;5063754;28;20215;-32
2023/01/25 12:24:50;;;;;;;56.90;37.33;;;3.40;99.90;;;;;;5059229;28;20302;-32
2023/01/25 12:27:45;;;;;;;57.27;38.70;;;3.40;99.90;;;;;;5064320;28;20265;-32
2023/01/25 12:30:28;;;;;;;60.50;41.13;;;3.40;99.90;;;;;;5064860;28;20681;-32
2023/01/25 12:33:04;;;;;;;60.47;39.30;;;3.40;99.90;;;;;;5056838;28;20728;-32
2023/01/25 12:35:43;;;;;;;61.83;40.07;;;3.40;99.90;;;;;;5055535;28;20218;-33
2023/01/25 12:38:19;;;;;;;64.60;40.40;;;3.40;99.90;;;;;;5058775;28;20732;-32
2023/01/25 12:41:15;;;;;;;61.80;41.10;;;3.40;99.90;;;;;;5065257;28;20712;-33
2023/01/25 12:43:56;;;;;;;62.57;39.70;;;3.40;99.90;;;;;;5063747;28;20203;-33
2023/01/25 12:46:45;;;;;;;60.37;40.43;;;3.40;99.90;;;;;;5064444;28;20230;-33
2023/01/25 12:49:27;;;;;;;56.70;37.90;;;3.40;99.90;;;;;;5060119;28;20309;-32
2023/01/25 12:51:57;;;;;;;64.87;37.13;;;3.50;99.90;;;;;;5059668;28;20307;-32
2023/01/25 12:54:36;;;;;;;61.00;38.27;;;3.40;99.90;;;;;;5054299;28;20207;-32
2023/01/25 12:57:14;;;;;;;59.43;39.10;;;3.40;99.90;;;;;;5045806;28;20243;-33
2023/01/25 12:59:56;;;;;;;61.10;38.83;;;3.40;99.90;;;;;;5053473;28;20298;-32
2023/01/25 13:02:26;;;;;;;62.67;39.63;;;3.40;99.90;;;;;;5060621;28;20303;-32
2023/01/25 13:05:01;;;;;;;62.33;36.93;;;3.40;99.90;;;;;;5064450;28;20265;-32
2023/01/25 13:07:41;;;;;;;58.73;38.87;;;3.40;99.90;;;;;;5064053;28;20214;-32
2023/01/25 13:10:20;;;;;;;64.67;38.20;;;3.40;99.90;;;;;;5060289;28;20204;-32
2023/01/25 13:13:04;;;;;;;62.40;39.50;;;3.40;99.90;;;;;;5056069;28;20286;-32